Time;durP1;ratioP1;P1;durP2;ratioP2;P2;SDS_P1;SDS_P2;PMS_P1;PMS_P2;Temp;Humidity;BMP_temperature;BMP_pressure;BME280_temperature;BME280_humidity;BME280_pressure;Samples;Min_cycle;Max_cycle;Signal;HPM_P1;HPM_P2
2024/03/25 00:00:45;;;;;;;6.20;1.75;;;;;;;;;;4957144;28;20055;-84
2024/03/25 00:03:13;;;;;;;4.32;1.20;;;;;;;;;;4948406;28;20035;-84
2024/03/25 00:05:41;;;;;;;4.85;1.23;;;;;;;;;;4975931;28;20047;-83
2024/03/25 00:08:10;;;;;;;6.45;1.10;;;;;;;;;;4976880;28;20050;-83
2024/03/25 00:10:38;;;;;;;2.20;0.73;;;;;;;;;;4971944;28;20047;-85
2024/03/25 00:13:06;;;;;;;10.15;0.88;;;;;;;;;;4975737;28;20046;-84
2024/03/25 00:15:34;;;;;;;1.88;0.85;;;;;;;;;;4959456;28;20051;-83
2024/03/25 00:18:03;;;;;;;3.63;0.82;;;;;;;;;;4975540;28;20057;-82
2024/03/25 00:20:31;;;;;;;4.30;1.13;;;;;;;;;;4977287;28;20058;-81
2024/03/25 00:23:00;;;;;;;11.73;1.10;;;;;;;;;;4960678;28;20063;-82
2024/03/25 00:25:28;;;;;;;7.00;1.05;;;;;;;;;;4977446;28;20046;-81
2024/03/25 00:27:57;;;;;;;5.03;1.10;;;;;;;;;;4974167;28;20050;-83
2024/03/25 00:30:25;;;;;;;6.95;0.98;;;;;;;;;;4973377;28;20054;-84
2024/03/25 00:32:55;;;;;;;2.28;0.90;;;;;;;;;;4957832;28;20383;-86
2024/03/25 00:35:23;;;;;;;3.75;1.13;;;;;;;;;;4974817;28;20053;-83
2024/03/25 00:37:51;;;;;;;8.07;1.42;;;;;;;;;;4959053;28;20050;-82
2024/03/25 00:40:20;;;;;;;5.15;1.10;;;;;;;;;;4961017;28;20069;-80
2024/03/25 00:42:48;;;;;;;2.42;1.02;;;;;;;;;;4979286;28;20498;-81
2024/03/25 00:45:16;;;;;;;5.00;1.13;;;;;;;;;;4964074;28;20058;-81
2024/03/25 00:47:44;;;;;;;5.35;1.08;;;;;;;;;;4959206;28;20054;-83
2024/03/25 00:50:12;;;;;;;10.77;1.30;;;;;;;;;;4959468;28;20046;-88
2024/03/25 00:52:41;;;;;;;8.38;1.50;;;;;;;;;;4974692;28;20051;-83
2024/03/25 00:55:09;;;;;;;8.93;1.52;;;;;;;;;;4975324;28;20054;-82
2024/03/25 00:57:37;;;;;;;6.00;1.52;;;;;;;;;;4974931;28;20063;-83
2024/03/25 01:00:06;;;;;;;14.75;2.45;;;;;;;;;;4976778;28;20058;-83
2024/03/25 01:02:34;;;;;;;14.88;2.08;;;;;;;;;;4977778;28;20043;-86
2024/03/25 01:05:05;;;;;;;12.80;2.17;;;;;;;;;;4975163;28;20043;-83
2024/03/25 01:07:33;;;;;;;32.47;3.05;;;;;;;;;;4958704;28;20426;-84
2024/03/25 01:10:02;;;;;;;9.40;1.90;;;;;;;;;;4961263;28;20051;-83
2024/03/25 01:12:30;;;;;;;17.33;2.85;;;;;;;;;;4976624;28;20417;-82
2024/03/25 01:14:59;;;;;;;10.98;2.50;;;;;;;;;;4959891;28;20414;-83
2024/03/25 01:17:27;;;;;;;8.93;1.92;;;;;;;;;;4980166;28;20062;-81
2024/03/25 01:19:55;;;;;;;6.55;1.60;;;;;;;;;;4978270;28;20050;-84
2024/03/25 01:22:24;;;;;;;11.00;2.50;;;;;;;;;;4975103;28;20046;-83
2024/03/25 01:24:52;;;;;;;7.55;1.52;;;;;;;;;;4974722;28;20064;-83
2024/03/25 01:27:20;;;;;;;8.00;1.60;;;;;;;;;;4973695;28;20050;-85
2024/03/25 01:29:48;;;;;;;14.95;2.28;;;;;;;;;;4974856;28;20395;-83
2024/03/25 01:32:16;;;;;;;11.20;1.83;;;;;;;;;;4974849;28;20050;-84
2024/03/25 01:34:45;;;;;;;5.97;1.30;;;;;;;;;;4973443;28;20073;-82
2024/03/25 01:37:13;;;;;;;5.57;1.52;;;;;;;;;;4955764;28;20055;-86
2024/03/25 01:39:42;;;;;;;6.90;1.40;;;;;;;;;;4957254;28;20061;-84
2024/03/25 01:42:10;;;;;;;3.95;1.25;;;;;;;;;;4974937;28;20043;-87
2024/03/25 01:44:38;;;;;;;4.00;1.35;;;;;;;;;;4974105;28;20057;-83
2024/03/25 01:47:07;;;;;;;10.30;1.55;;;;;;;;;;4973821;28;20421;-84
2024/03/25 01:49:35;;;;;;;6.28;1.60;;;;;;;;;;4973936;28;20047;-86
2024/03/25 01:52:03;;;;;;;5.03;1.30;;;;;;;;;;4957689;28;20054;-83
2024/03/25 01:54:36;;;;;;;9.45;1.92;;;;;;;;;;4974870;28;20042;-86
2024/03/25 01:57:04;;;;;;;14.18;2.33;;;;;;;;;;4974100;28;20050;-84
2024/03/25 01:59:33;;;;;;;14.90;2.72;;;;;;;;;;4958321;28;20051;-87
2024/03/25 02:02:01;;;;;;;11.70;1.70;;;;;;;;;;4973920;28;20047;-83
2024/03/25 02:04:30;;;;;;;10.77;1.75;;;;;;;;;;4957682;28;20050;-84
2024/03/25 02:09:52;;;;;;;9.93;1.70;;;;;;;;;;4972847;28;20073;-83
2024/03/25 02:12:22;;;;;;;7.50;1.63;;;;;;;;;;4987648;28;20058;-82
2024/03/25 02:14:50;;;;;;;7.90;1.70;;;;;;;;;;4975775;28;20374;-85
2024/03/25 02:17:19;;;;;;;4.93;1.67;;;;;;;;;;4991293;28;20034;-82
2024/03/25 02:19:47;;;;;;;4.60;1.67;;;;;;;;;;4977070;28;20557;-87
2024/03/25 02:22:15;;;;;;;7.22;1.63;;;;;;;;;;4993373;28;20503;-84
2024/03/25 02:24:46;;;;;;;14.48;2.03;;;;;;;;;;4976576;28;20050;-83
2024/03/25 02:27:14;;;;;;;10.90;2.35;;;;;;;;;;4961177;28;20520;-86
2024/03/25 02:29:44;;;;;;;6.40;1.80;;;;;;;;;;4977576;28;20512;-83
2024/03/25 02:32:12;;;;;;;6.93;1.80;;;;;;;;;;4993551;28;20057;-84
2024/03/25 02:34:48;;;;;;;7.95;1.98;;;;;;;;;;4960996;28;20055;-83
2024/03/25 02:37:16;;;;;;;9.75;1.98;;;;;;;;;;4977273;28;20051;-83
2024/03/25 02:39:45;;;;;;;11.27;1.52;;;;;;;;;;4994860;28;20043;-84
2024/03/25 02:42:14;;;;;;;6.82;1.92;;;;;;;;;;4995432;28;20399;-82
2024/03/25 02:44:43;;;;;;;5.40;1.38;;;;;;;;;;4994270;28;20042;-83
2024/03/25 02:47:11;;;;;;;6.38;1.63;;;;;;;;;;4993196;28;20050;-82
2024/03/25 02:49:39;;;;;;;10.95;2.00;;;;;;;;;;4976946;28;20061;-83
2024/03/25 02:52:08;;;;;;;6.38;1.52;;;;;;;;;;4976368;28;20501;-88
2024/03/25 02:54:36;;;;;;;9.45;2.53;;;;;;;;;;4961005;28;20047;-84
2024/03/25 02:57:04;;;;;;;5.85;2.03;;;;;;;;;;4976224;28;20428;-83
2024/03/25 02:59:32;;;;;;;5.60;1.50;;;;;;;;;;4994047;28;20046;-82
2024/03/25 03:02:01;;;;;;;5.03;1.80;;;;;;;;;;4956164;28;20501;-83
2024/03/25 03:04:29;;;;;;;11.38;2.00;;;;;;;;;;4966218;28;20401;-85
2024/03/25 03:06:58;;;;;;;8.25;2.10;;;;;;;;;;4963728;28;20047;-88
2024/03/25 03:09:26;;;;;;;7.15;1.40;;;;;;;;;;4972542;28;20047;-88
2024/03/25 03:11:54;;;;;;;8.90;1.95;;;;;;;;;;4956472;28;20073;-89
2024/03/25 03:14:22;;;;;;;8.27;1.73;;;;;;;;;;4958057;28;20073;-82
2024/03/25 03:16:54;;;;;;;6.32;1.70;;;;;;;;;;4956829;28;20490;-83
2024/03/25 03:19:22;;;;;;;6.18;1.80;;;;;;;;;;4956304;28;20153;-83
2024/03/25 03:21:50;;;;;;;7.25;1.80;;;;;;;;;;4941959;28;20513;-83
2024/03/25 03:24:19;;;;;;;6.78;2.13;;;;;;;;;;4974343;28;20062;-88
2024/03/25 03:26:47;;;;;;;6.75;1.75;;;;;;;;;;4941058;28;20066;-85
2024/03/25 03:29:15;;;;;;;6.38;1.92;;;;;;;;;;4972880;28;20043;-82
2024/03/25 03:31:44;;;;;;;4.25;2.13;;;;;;;;;;4973873;28;20049;-84
2024/03/25 03:34:12;;;;;;;9.27;3.55;;;;;;;;;;4973817;28;20093;-82
2024/03/25 03:36:40;;;;;;;7.45;2.20;;;;;;;;;;4957579;28;20074;-82
2024/03/25 03:39:09;;;;;;;12.88;2.40;;;;;;;;;;4973727;28;20043;-83
2024/03/25 03:41:37;;;;;;;6.75;2.00;;;;;;;;;;4959893;28;20212;-83
2024/03/25 03:44:06;;;;;;;8.32;2.50;;;;;;;;;;4956616;28;20529;-80
2024/03/25 03:46:34;;;;;;;10.93;2.05;;;;;;;;;;4957498;28;20046;-86
2024/03/25 03:49:02;;;;;;;6.38;2.00;;;;;;;;;;4975290;28;20047;-85
2024/03/25 03:51:30;;;;;;;3.95;1.90;;;;;;;;;;4975249;28;20053;-88
2024/03/25 03:53:58;;;;;;;6.82;2.10;;;;;;;;;;4975136;28;20055;-82
2024/03/25 03:56:27;;;;;;;7.55;2.63;;;;;;;;;;4973896;28;20053;-83
2024/03/25 03:58:56;;;;;;;8.95;2.40;;;;;;;;;;4975467;28;20482;-80
2024/03/25 04:01:24;;;;;;;10.63;2.25;;;;;;;;;;4980695;28;20054;-81
2024/03/25 04:03:52;;;;;;;6.32;2.25;;;;;;;;;;4978333;28;20051;-83
2024/03/25 04:06:20;;;;;;;7.03;2.10;;;;;;;;;;4976977;28;20055;-83
2024/03/25 04:08:48;;;;;;;7.60;2.47;;;;;;;;;;4978521;28;20057;-83
2024/03/25 04:11:16;;;;;;;6.57;1.92;;;;;;;;;;4975058;28;20413;-82
2024/03/25 04:13:47;;;;;;;6.10;1.80;;;;;;;;;;4975164;28;20055;-83
2024/03/25 04:16:15;;;;;;;10.60;2.25;;;;;;;;;;4977097;28;20035;-82
2024/03/25 04:18:43;;;;;;;7.45;1.70;;;;;;;;;;4961893;28;20034;-83
2024/03/25 04:21:13;;;;;;;6.53;2.45;;;;;;;;;;4979839;28;20050;-85
2024/03/25 04:23:43;;;;;;;5.97;1.65;;;;;;;;;;4960496;28;20528;-82
2024/03/25 04:26:11;;;;;;;7.43;1.52;;;;;;;;;;4979850;28;20051;-82
2024/03/25 04:28:39;;;;;;;7.75;2.15;;;;;;;;;;4980451;28;20062;-83
2024/03/25 04:31:08;;;;;;;6.50;2.78;;;;;;;;;;4964634;28;20105;-84
2024/03/25 04:33:36;;;;;;;8.38;2.40;;;;;;;;;;4979007;28;20050;-83
2024/03/25 04:36:04;;;;;;;10.25;1.73;;;;;;;;;;4970349;28;20047;-82
2024/03/25 04:38:33;;;;;;;5.97;1.70;;;;;;;;;;4987618;28;20046;-82
2024/03/25 04:41:01;;;;;;;9.60;2.13;;;;;;;;;;4981748;28;20050;-83
2024/03/25 04:43:29;;;;;;;6.57;2.13;;;;;;;;;;4977945;28;20101;-83
2024/03/25 04:46:00;;;;;;;6.25;2.25;;;;;;;;;;4960324;28;20406;-83
2024/03/25 04:48:29;;;;;;;6.65;2.42;;;;;;;;;;4977100;28;20054;-83
2024/03/25 04:50:57;;;;;;;12.10;3.20;;;;;;;;;;4961934;28;20413;-86
2024/03/25 04:53:26;;;;;;;7.93;2.45;;;;;;;;;;4978106;28;20047;-83
2024/03/25 04:55:54;;;;;;;6.28;3.28;;;;;;;;;;4947302;28;20066;-83
2024/03/25 04:58:22;;;;;;;9.50;2.42;;;;;;;;;;4961372;28;20047;-83
2024/03/25 05:00:50;;;;;;;10.65;3.08;;;;;;;;;;4961361;28;20046;-83
2024/03/25 05:03:19;;;;;;;8.65;2.88;;;;;;;;;;4978320;28;20038;-85
2024/03/25 05:05:47;;;;;;;6.70;2.75;;;;;;;;;;4977329;28;20042;-82
2024/03/25 05:08:15;;;;;;;8.93;3.40;;;;;;;;;;4977053;28;20042;-82
2024/03/25 05:10:44;;;;;;;6.00;2.85;;;;;;;;;;4975483;28;20054;-84
2024/03/25 05:13:12;;;;;;;17.33;3.17;;;;;;;;;;4976613;28;20050;-84
2024/03/25 05:15:40;;;;;;;7.80;2.85;;;;;;;;;;4960538;28;20058;-84
2024/03/25 05:18:08;;;;;;;7.90;2.95;;;;;;;;;;4978626;28;20042;-83
2024/03/25 05:20:37;;;;;;;7.32;2.53;;;;;;;;;;4964078;28;20057;-83
2024/03/25 05:23:05;;;;;;;6.97;2.38;;;;;;;;;;4961177;28;20059;-84
2024/03/25 05:25:35;;;;;;;7.30;1.83;;;;;;;;;;4977114;28;20062;-83
2024/03/25 05:28:03;;;;;;;7.07;2.42;;;;;;;;;;4976830;28;20059;-83
2024/03/25 05:30:31;;;;;;;7.90;2.47;;;;;;;;;;4975677;28;20054;-82
2024/03/25 05:32:59;;;;;;;6.22;1.90;;;;;;;;;;4975573;28;20066;-84
2024/03/25 05:35:27;;;;;;;4.93;1.90;;;;;;;;;;4976372;28;20061;-85
2024/03/25 05:37:55;;;;;;;9.57;2.70;;;;;;;;;;4945553;28;20054;-85
2024/03/25 05:40:23;;;;;;;12.73;2.67;;;;;;;;;;4976142;28;20054;-83
2024/03/25 05:42:55;;;;;;;9.55;2.53;;;;;;;;;;4976711;28;20485;-86
2024/03/25 05:45:25;;;;;;;8.75;2.75;;;;;;;;;;4977876;28;20039;-83
2024/03/25 05:47:54;;;;;;;13.80;3.00;;;;;;;;;;4959615;28;20045;-83
2024/03/25 05:50:46;;;;;;;7.82;2.90;;;;;;;;;;4977535;28;20039;-83
2024/03/25 05:53:15;;;;;;;13.20;2.83;;;;;;;;;;4974175;28;20057;-83
2024/03/25 05:55:43;;;;;;;11.10;2.40;;;;;;;;;;4959342;28;20062;-83
2024/03/25 05:58:11;;;;;;;12.15;3.10;;;;;;;;;;4959611;28;20051;-83
2024/03/25 06:00:39;;;;;;;11.07;2.30;;;;;;;;;;4958618;28;20047;-82
2024/03/25 06:03:09;;;;;;;7.55;2.40;;;;;;;;;;4968505;28;20050;-82
2024/03/25 06:05:37;;;;;;;9.18;1.98;;;;;;;;;;4973962;28;20053;-85
2024/03/25 06:08:07;;;;;;;7.00;2.10;;;;;;;;;;4973593;28;20075;-83
2024/03/25 06:10:37;;;;;;;7.03;1.80;;;;;;;;;;4973607;28;20500;-83
2024/03/25 06:13:05;;;;;;;8.20;2.30;;;;;;;;;;4938480;29;20430;-86
2024/03/25 06:15:33;;;;;;;6.68;1.58;;;;;;;;;;4956522;28;20047;-82
2024/03/25 06:18:01;;;;;;;6.97;1.58;;;;;;;;;;4938373;29;20055;-85
2024/03/25 06:20:29;;;;;;;7.57;1.95;;;;;;;;;;4955875;29;20065;-82
2024/03/25 06:22:58;;;;;;;5.68;1.52;;;;;;;;;;4957041;28;20051;-82
2024/03/25 06:25:26;;;;;;;9.32;2.17;;;;;;;;;;4939645;29;20089;-84
2024/03/25 06:27:55;;;;;;;5.53;1.73;;;;;;;;;;4939250;29;20490;-84
2024/03/25 06:35:56;;;;;;;13.80;2.65;;;;;;;;;;4938157;29;20055;-82
2024/03/25 06:38:24;;;;;;;7.13;1.88;;;;;;;;;;4941102;29;20043;-82
2024/03/25 06:40:55;;;;;;;6.22;1.98;;;;;;;;;;4941246;29;20051;-82
2024/03/25 06:43:23;;;;;;;10.48;2.05;;;;;;;;;;4956265;28;20410;-83
2024/03/25 06:45:51;;;;;;;5.60;1.70;;;;;;;;;;4957739;29;20067;-83
2024/03/25 06:48:19;;;;;;;7.25;2.05;;;;;;;;;;4956717;29;20078;-84
2024/03/25 06:50:55;;;;;;;8.73;2.70;;;;;;;;;;4940181;29;20051;-84
2024/03/25 06:53:25;;;;;;;6.40;1.92;;;;;;;;;;4939552;29;20051;-84
2024/03/25 06:55:54;;;;;;;5.43;1.83;;;;;;;;;;4954828;28;20051;-82
2024/03/25 06:58:23;;;;;;;9.20;2.10;;;;;;;;;;4922059;29;20055;-85
2024/03/25 07:00:53;;;;;;;5.40;2.42;;;;;;;;;;4950511;28;20502;-82
2024/03/25 07:03:23;;;;;;;7.68;1.85;;;;;;;;;;4959603;28;20062;-87
2024/03/25 07:05:59;;;;;;;6.15;2.55;;;;;;;;;;4975421;28;20047;-84
2024/03/25 07:08:32;;;;;;;6.32;2.33;;;;;;;;;;4968105;28;20097;-85
2024/03/25 07:11:00;;;;;;;8.02;2.25;;;;;;;;;;4954948;29;20039;-85
2024/03/25 07:13:28;;;;;;;6.88;2.50;;;;;;;;;;4953857;29;20058;-85
2024/03/25 07:15:56;;;;;;;10.45;1.90;;;;;;;;;;4954318;29;20050;-87
2024/03/25 07:18:25;;;;;;;7.40;2.10;;;;;;;;;;4948562;29;20042;-84
2024/03/25 07:20:54;;;;;;;8.63;2.38;;;;;;;;;;4954311;28;20043;-84
2024/03/25 07:23:22;;;;;;;10.18;1.83;;;;;;;;;;4958066;28;20047;-83
2024/03/25 07:25:52;;;;;;;8.57;2.40;;;;;;;;;;4953337;28;20051;-82
2024/03/25 07:28:20;;;;;;;5.13;2.05;;;;;;;;;;4962685;28;20042;-83
2024/03/25 07:30:51;;;;;;;4.60;2.00;;;;;;;;;;4974835;28;20055;-83
2024/03/25 07:33:19;;;;;;;5.25;2.00;;;;;;;;;;4941934;28;20055;-86
2024/03/25 07:35:51;;;;;;;6.13;1.85;;;;;;;;;;4952965;28;20493;-85
2024/03/25 07:38:22;;;;;;;7.20;2.08;;;;;;;;;;4960123;28;20061;-85
2024/03/25 07:40:51;;;;;;;6.07;2.05;;;;;;;;;;4976683;28;20512;-85
2024/03/25 07:43:19;;;;;;;8.40;1.80;;;;;;;;;;4960359;28;20054;-83
2024/03/25 07:45:47;;;;;;;8.05;2.20;;;;;;;;;;4960698;28;20058;-83
2024/03/25 07:48:15;;;;;;;6.28;2.25;;;;;;;;;;4961037;28;20397;-81
2024/03/25 07:50:44;;;;;;;5.25;2.13;;;;;;;;;;4960248;28;20046;-84
2024/03/25 07:53:12;;;;;;;6.88;2.08;;;;;;;;;;4960288;28;20069;-83
2024/03/25 07:55:41;;;;;;;8.68;2.33;;;;;;;;;;4959812;28;20051;-83
2024/03/25 07:58:09;;;;;;;6.93;1.83;;;;;;;;;;4992312;28;20409;-84
2024/03/25 08:00:38;;;;;;;8.02;1.95;;;;;;;;;;4960850;28;20050;-84
2024/03/25 08:03:06;;;;;;;5.95;2.13;;;;;;;;;;4976405;28;20053;-86
2024/03/25 08:05:34;;;;;;;7.15;1.85;;;;;;;;;;4976192;28;20051;-88
2024/03/25 08:08:03;;;;;;;5.30;2.05;;;;;;;;;;4959644;28;20055;-88
2024/03/25 08:10:32;;;;;;;4.38;1.30;;;;;;;;;;4976086;28;20054;-82
2024/03/25 08:13:00;;;;;;;5.85;1.45;;;;;;;;;;4960792;28;20054;-83
2024/03/25 08:15:28;;;;;;;6.85;1.83;;;;;;;;;;4960123;28;20476;-83
2024/03/25 08:17:57;;;;;;;6.35;1.52;;;;;;;;;;4976071;28;20509;-82
2024/03/25 08:20:25;;;;;;;5.53;1.80;;;;;;;;;;4960137;28;20062;-83
2024/03/25 08:22:53;;;;;;;6.10;1.52;;;;;;;;;;4959582;28;20418;-84
2024/03/25 08:25:21;;;;;;;4.10;1.25;;;;;;;;;;4959325;28;20581;-83
2024/03/25 08:27:49;;;;;;;6.43;1.55;;;;;;;;;;4960118;28;20065;-81
2024/03/25 08:30:17;;;;;;;4.53;1.50;;;;;;;;;;4973899;28;20445;-87
2024/03/25 08:32:45;;;;;;;5.75;1.75;;;;;;;;;;4959115;28;20059;-82
2024/03/25 08:35:18;;;;;;;5.10;1.13;;;;;;;;;;4960358;28;20061;-82
2024/03/25 08:37:46;;;;;;;6.45;1.52;;;;;;;;;;4975974;28;20386;-81
2024/03/25 08:40:23;;;;;;;6.80;1.30;;;;;;;;;;4960432;28;20039;-86
2024/03/25 08:42:51;;;;;;;4.10;1.40;;;;;;;;;;4975745;28;20396;-83
2024/03/25 08:45:20;;;;;;;5.60;1.77;;;;;;;;;;4971984;28;20505;-86
2024/03/25 08:47:48;;;;;;;4.38;1.65;;;;;;;;;;4968376;28;20058;-82
2024/03/25 08:50:16;;;;;;;5.22;1.70;;;;;;;;;;4957456;28;20043;-81
2024/03/25 08:52:44;;;;;;;4.00;1.48;;;;;;;;;;4956093;28;20486;-87
2024/03/25 08:55:12;;;;;;;5.22;1.90;;;;;;;;;;4955921;29;20052;-83
2024/03/25 08:57:40;;;;;;;5.72;1.98;;;;;;;;;;4956118;29;20410;-83
2024/03/25 09:00:10;;;;;;;5.50;1.95;;;;;;;;;;4956140;28;20143;-83
2024/03/25 09:02:38;;;;;;;8.77;2.30;;;;;;;;;;4958259;28;20067;-84
2024/03/25 09:05:07;;;;;;;5.95;1.63;;;;;;;;;;4974683;28;20059;-82
2024/03/25 09:07:35;;;;;;;9.48;1.90;;;;;;;;;;4975240;28;20049;-82
2024/03/25 09:12:51;;;;;;;6.25;2.33;;;;;;;;;;4961785;28;20544;-84
2024/03/25 09:15:19;;;;;;;6.70;1.92;;;;;;;;;;4974570;28;20495;-82
2024/03/25 09:17:47;;;;;;;4.97;1.45;;;;;;;;;;4974928;28;20043;-83
2024/03/25 09:20:20;;;;;;;6.20;2.22;;;;;;;;;;4974702;28;20512;-85
2024/03/25 09:22:49;;;;;;;5.70;1.55;;;;;;;;;;4974927;28;20039;-82
2024/03/25 09:25:17;;;;;;;10.32;1.65;;;;;;;;;;4975098;28;20070;-82
2024/03/25 09:27:50;;;;;;;6.72;1.73;;;;;;;;;;4958735;28;20046;-82
2024/03/25 09:30:19;;;;;;;6.47;1.88;;;;;;;;;;4974404;28;20501;-83
2024/03/25 09:32:47;;;;;;;6.47;1.63;;;;;;;;;;4974942;28;20043;-82
2024/03/25 09:35:15;;;;;;;10.07;1.83;;;;;;;;;;4974735;28;20518;-85
2024/03/25 09:37:43;;;;;;;5.70;1.60;;;;;;;;;;4958706;28;20050;-83
2024/03/25 09:40:12;;;;;;;5.38;2.03;;;;;;;;;;4974534;28;20051;-84
2024/03/25 09:42:55;;;;;;;5.70;1.70;;;;;;;;;;4974217;28;20145;-83
2024/03/25 09:45:25;;;;;;;7.65;1.83;;;;;;;;;;4957311;28;20047;-86
2024/03/25 09:47:54;;;;;;;6.82;1.80;;;;;;;;;;4973944;28;20054;-83
2024/03/25 09:50:24;;;;;;;5.70;1.63;;;;;;;;;;4974319;28;20383;-83
2024/03/25 09:52:52;;;;;;;10.57;2.00;;;;;;;;;;4973370;28;20054;-85
2024/03/25 09:55:20;;;;;;;5.95;2.70;;;;;;;;;;4957323;28;20542;-83
2024/03/25 09:57:48;;;;;;;5.45;2.00;;;;;;;;;;4957276;28;20059;-82
2024/03/25 10:00:18;;;;;;;8.05;1.60;;;;;;;;;;4973428;28;20042;-84
2024/03/25 10:02:46;;;;;;;4.28;1.73;;;;;;;;;;4957885;28;20135;-82
2024/03/25 10:05:14;;;;;;;5.07;2.20;;;;;;;;;;4973852;28;20051;-84
2024/03/25 10:07:43;;;;;;;7.03;2.10;;;;;;;;;;4957663;28;20074;-82
2024/03/25 10:10:11;;;;;;;66.03;50.97;;;;;;;;;;4974097;28;20046;-84
2024/03/25 10:12:41;;;;;;;12.43;4.07;;;;;;;;;;4962978;28;20047;-84
2024/03/25 10:15:15;;;;;;;6.53;3.10;;;;;;;;;;4967163;28;20409;-84
2024/03/25 10:17:44;;;;;;;8.25;3.65;;;;;;;;;;4973966;28;20042;-84
2024/03/25 10:20:16;;;;;;;7.20;3.67;;;;;;;;;;4958173;28;20062;-83
2024/03/25 10:22:48;;;;;;;10.45;6.53;;;;;;;;;;4973455;28;20494;-83
2024/03/25 10:25:28;;;;;;;14.70;6.60;;;;;;;;;;4968693;28;20482;-84
2024/03/25 10:28:01;;;;;;;7.07;1.92;;;;;;;;;;4964134;28;20046;-84
2024/03/25 10:30:30;;;;;;;10.15;4.40;;;;;;;;;;4961845;28;20043;-82
2024/03/25 10:33:03;;;;;;;30.65;19.08;;;;;;;;;;4971743;28;20058;-83
2024/03/25 10:35:33;;;;;;;8.60;3.60;;;;;;;;;;4950060;28;20042;-84
2024/03/25 10:38:07;;;;;;;10.25;3.15;;;;;;;;;;4922500;28;20054;-85
2024/03/25 10:40:40;;;;;;;10.50;4.65;;;;;;;;;;4944928;28;20051;-83
2024/03/25 10:43:13;;;;;;;12.50;4.00;;;;;;;;;;4952141;28;20047;-87
2024/03/25 10:45:47;;;;;;;7.65;2.88;;;;;;;;;;4953407;28;20524;-85
2024/03/25 10:48:31;;;;;;;11.00;3.72;;;;;;;;;;4969177;28;20413;-86
2024/03/25 10:51:02;;;;;;;19.95;3.53;;;;;;;;;;4970312;28;20050;-86
2024/03/25 10:53:32;;;;;;;5.07;2.15;;;;;;;;;;4970143;28;20088;-82
2024/03/25 10:56:01;;;;;;;3.92;1.77;;;;;;;;;;4954658;28;20070;-85
2024/03/25 10:58:29;;;;;;;8.82;2.08;;;;;;;;;;4957272;28;20051;-86
2024/03/25 11:00:59;;;;;;;8.32;2.03;;;;;;;;;;4951997;29;20047;-82
2024/03/25 11:03:28;;;;;;;10.68;2.38;;;;;;;;;;4946336;28;20568;-84
2024/03/25 11:05:56;;;;;;;6.95;1.95;;;;;;;;;;4970389;28;20066;-84
2024/03/25 11:08:32;;;;;;;6.05;2.13;;;;;;;;;;4953889;28;20568;-83
2024/03/25 11:11:00;;;;;;;5.35;1.83;;;;;;;;;;4970623;28;20039;-82
2024/03/25 11:13:31;;;;;;;4.35;1.50;;;;;;;;;;4971111;28;20047;-87
2024/03/25 11:16:01;;;;;;;4.13;1.80;;;;;;;;;;4956749;28;20043;-82
2024/03/25 11:18:33;;;;;;;4.32;1.65;;;;;;;;;;4936726;29;20514;-82
2024/03/25 11:21:09;;;;;;;4.80;1.80;;;;;;;;;;4936028;29;20044;-82
2024/03/25 11:23:42;;;;;;;3.60;1.60;;;;;;;;;;4951797;28;20051;-83
2024/03/25 11:26:20;;;;;;;6.93;2.20;;;;;;;;;;4936849;29;20457;-83
2024/03/25 11:28:49;;;;;;;6.68;2.08;;;;;;;;;;4951571;29;20059;-83
2024/03/25 11:31:19;;;;;;;6.13;1.80;;;;;;;;;;4937260;29;20043;-82
2024/03/25 11:37:08;;;;;;;8.05;1.42;;;;;;;;;;4914444;29;20071;-85
2024/03/25 11:39:37;;;;;;;5.40;1.02;;;;;;;;;;4903357;29;20151;-87
2024/03/25 11:42:05;;;;;;;4.60;1.17;;;;;;;;;;4916993;29;20063;-82
2024/03/25 11:44:40;;;;;;;1.92;1.00;;;;;;;;;;4916871;29;20047;-83
2024/03/25 11:47:09;;;;;;;3.55;1.40;;;;;;;;;;4916874;29;20059;-81
2024/03/25 11:49:39;;;;;;;2.80;1.10;;;;;;;;;;4916555;29;20044;-81
2024/03/25 11:52:08;;;;;;;3.00;0.98;;;;;;;;;;4927640;29;20051;-85
2024/03/25 11:54:36;;;;;;;5.03;1.70;;;;;;;;;;4936059;29;20568;-82
2024/03/25 11:57:05;;;;;;;1.75;1.10;;;;;;;;;;4920278;29;20066;-83
2024/03/25 11:59:34;;;;;;;1.67;1.13;;;;;;;;;;4920284;29;20043;-83
2024/03/25 12:02:07;;;;;;;3.10;0.80;;;;;;;;;;4935815;29;20521;-83
2024/03/25 12:04:36;;;;;;;1.67;0.80;;;;;;;;;;4936549;29;20051;-80
2024/03/25 12:07:04;;;;;;;2.10;0.80;;;;;;;;;;4919525;29;20055;-82
2024/03/25 12:12:19;;;;;;;2.55;0.90;;;;;;;;;;4928597;29;20058;-82
2024/03/25 12:14:47;;;;;;;1.60;0.75;;;;;;;;;;4932518;28;21159;-83
2024/03/25 12:17:16;;;;;;;2.15;0.82;;;;;;;;;;4953076;28;20051;-83
2024/03/25 12:19:58;;;;;;;4.32;1.00;;;;;;;;;;4957250;28;20062;-82
2024/03/25 12:22:27;;;;;;;3.78;0.80;;;;;;;;;;4960226;28;20062;-82
2024/03/25 12:25:21;;;;;;;3.75;1.08;;;;;;;;;;4974567;28;20058;-82
2024/03/25 12:27:51;;;;;;;6.32;0.98;;;;;;;;;;4963544;28;20059;-82
2024/03/25 12:30:20;;;;;;;2.83;0.98;;;;;;;;;;4968091;28;20044;-84
2024/03/25 12:32:51;;;;;;;1.08;0.63;;;;;;;;;;4955701;29;20039;-81
2024/03/25 12:35:19;;;;;;;1.35;0.52;;;;;;;;;;4972994;28;20047;-84
2024/03/25 12:37:49;;;;;;;1.08;0.65;;;;;;;;;;4972270;28;20046;-83
2024/03/25 12:40:30;;;;;;;4.32;1.30;;;;;;;;;;4974858;28;20494;-82
2024/03/25 12:42:58;;;;;;;2.03;0.95;;;;;;;;;;4975228;28;20064;-83
2024/03/25 12:45:28;;;;;;;1.58;1.00;;;;;;;;;;4974470;28;20494;-83
2024/03/25 12:47:57;;;;;;;2.38;0.68;;;;;;;;;;4974409;28;20050;-83
2024/03/25 12:50:25;;;;;;;1.02;0.57;;;;;;;;;;4972892;28;20039;-82
2024/03/25 12:52:54;;;;;;;4.13;0.75;;;;;;;;;;4974804;28;20039;-84
2024/03/25 12:55:23;;;;;;;4.80;0.68;;;;;;;;;;4974979;28;20047;-83
2024/03/25 12:57:52;;;;;;;2.20;0.85;;;;;;;;;;4972656;28;20051;-83
2024/03/25 13:00:21;;;;;;;1.15;0.63;;;;;;;;;;4972542;28;20050;-84
2024/03/25 13:02:50;;;;;;;1.17;0.60;;;;;;;;;;4975133;28;20043;-84
2024/03/25 13:05:18;;;;;;;1.58;0.57;;;;;;;;;;4965735;28;20054;-85
2024/03/25 13:07:47;;;;;;;1.52;0.65;;;;;;;;;;4952008;28;20054;-82
2024/03/25 13:10:15;;;;;;;4.20;0.75;;;;;;;;;;4961116;28;20047;-82
2024/03/25 13:12:43;;;;;;;2.03;0.50;;;;;;;;;;4959680;28;20051;-82
2024/03/25 13:15:14;;;;;;;6.43;0.95;;;;;;;;;;4960819;28;20050;-82
2024/03/25 13:17:42;;;;;;;0.95;0.52;;;;;;;;;;4959017;28;20054;-83
2024/03/25 13:20:13;;;;;;;1.80;0.73;;;;;;;;;;4973319;28;20448;-84
2024/03/25 13:22:45;;;;;;;2.28;0.60;;;;;;;;;;4973824;28;20050;-82
2024/03/25 13:25:13;;;;;;;1.80;0.52;;;;;;;;;;4971857;28;20062;-84
2024/03/25 13:27:41;;;;;;;1.40;0.75;;;;;;;;;;4968296;28;20051;-85
2024/03/25 13:30:10;;;;;;;1.60;0.60;;;;;;;;;;4956839;28;20042;-83
2024/03/25 13:32:39;;;;;;;0.93;0.60;;;;;;;;;;4972896;28;20501;-84
2024/03/25 13:35:07;;;;;;;1.20;0.82;;;;;;;;;;4962125;28;20070;-84
2024/03/25 13:37:35;;;;;;;1.08;0.52;;;;;;;;;;4938165;29;20055;-83
2024/03/25 13:40:05;;;;;;;1.63;0.60;;;;;;;;;;4954264;29;20050;-84
2024/03/25 13:42:34;;;;;;;4.10;0.80;;;;;;;;;;4954324;28;20043;-83
2024/03/25 13:45:04;;;;;;;4.18;2.10;;;;;;;;;;4957027;28;20047;-83
2024/03/25 13:47:33;;;;;;;3.33;1.30;;;;;;;;;;4957973;28;20370;-85
2024/03/25 13:50:08;;;;;;;5.28;1.02;;;;;;;;;;4965149;28;20067;-83
2024/03/25 13:52:37;;;;;;;2.55;0.55;;;;;;;;;;4956425;28;20061;-82
2024/03/25 13:55:06;;;;;;;2.05;0.50;;;;;;;;;;4971319;28;20065;-84
2024/03/25 13:57:34;;;;;;;3.47;0.77;;;;;;;;;;4962460;28;20083;-85
2024/03/25 14:00:08;;;;;;;1.15;0.50;;;;;;;;;;4969567;28;20409;-84
2024/03/25 14:02:43;;;;;;;2.28;0.80;;;;;;;;;;4955521;28;20496;-85
2024/03/25 14:05:13;;;;;;;1.23;0.50;;;;;;;;;;4968144;28;20066;-83
2024/03/25 14:07:42;;;;;;;0.77;0.75;;;;;;;;;;4973204;28;20073;-84
2024/03/25 14:10:11;;;;;;;53.47;1.75;;;;;;;;;;4953310;28;20059;-86
2024/03/25 14:12:39;;;;;;;3.20;0.63;;;;;;;;;;4956101;28;20050;-85
2024/03/25 14:15:09;;;;;;;0.77;0.65;;;;;;;;;;4962715;28;20494;-87
2024/03/25 14:17:37;;;;;;;0.95;0.50;;;;;;;;;;4955408;28;20055;-84
2024/03/25 14:20:06;;;;;;;1.00;0.50;;;;;;;;;;4954615;28;20055;-83
2024/03/25 14:22:36;;;;;;;1.20;0.60;;;;;;;;;;4956817;28;20501;-84
2024/03/25 14:25:06;;;;;;;1.83;0.60;;;;;;;;;;4955554;28;20056;-83
2024/03/25 14:27:35;;;;;;;2.80;0.90;;;;;;;;;;4968190;28;20047;-84
2024/03/25 14:30:03;;;;;;;4.10;0.70;;;;;;;;;;4969383;28;20410;-84
2024/03/25 14:32:32;;;;;;;1.30;0.73;;;;;;;;;;4968143;28;20062;-81
2024/03/25 14:35:01;;;;;;;3.92;0.68;;;;;;;;;;4955261;28;20487;-82
2024/03/25 14:37:29;;;;;;;1.67;0.75;;;;;;;;;;4967212;28;20054;-83
2024/03/25 14:39:59;;;;;;;1.58;0.88;;;;;;;;;;4953638;29;20043;-83
2024/03/25 14:42:27;;;;;;;1.25;0.73;;;;;;;;;;4937148;29;20069;-84
2024/03/25 14:44:55;;;;;;;2.13;0.60;;;;;;;;;;4965065;28;20043;-84
2024/03/25 14:47:24;;;;;;;1.40;0.73;;;;;;;;;;4972828;28;20047;-82
2024/03/25 14:49:53;;;;;;;1.48;0.70;;;;;;;;;;4956369;28;20050;-82
2024/03/25 14:52:22;;;;;;;2.03;0.90;;;;;;;;;;4956287;28;20062;-84
2024/03/25 14:54:50;;;;;;;1.23;0.80;;;;;;;;;;4972370;28;20058;-85
2024/03/25 14:57:18;;;;;;;2.90;0.75;;;;;;;;;;4940731;28;20078;-85
2024/03/25 14:59:47;;;;;;;3.25;0.60;;;;;;;;;;4972028;28;20051;-84
2024/03/25 15:02:16;;;;;;;2.78;0.75;;;;;;;;;;4972290;28;20070;-83
2024/03/25 15:04:45;;;;;;;3.05;0.57;;;;;;;;;;4972499;28;20050;-87
2024/03/25 15:07:14;;;;;;;0.57;0.50;;;;;;;;;;4956880;28;20050;-82
2024/03/25 15:09:42;;;;;;;0.70;0.40;;;;;;;;;;4955425;28;20078;-81